sensor_id;sensor_type;location;lat;lon;timestamp;P1;durP1;ratioP1;P2;durP2;ratioP2
2021;SDS011;1015;49.756;6.994;2023-08-20T00:01:21;8.60;;;5.57;;
2021;SDS011;1015;49.756;6.994;2023-08-20T00:03:49;8.00;;;5.70;;
2021;SDS011;1015;49.756;6.994;2023-08-20T00:06:17;8.17;;;6.00;;
2021;SDS011;1015;49.756;6.994;2023-08-20T00:08:44;6.80;;;5.47;;
2021;SDS011;1015;49.756;6.994;2023-08-20T00:11:12;5.30;;;4.80;;
2021;SDS011;1015;49.756;6.994;2023-08-20T00:13:39;5.27;;;4.77;;
2021;SDS011;1015;49.756;6.994;2023-08-20T00:16:08;6.20;;;5.40;;
2021;SDS011;1015;49.756;6.994;2023-08-20T00:18:36;5.30;;;4.80;;
2021;SDS011;1015;49.756;6.994;2023-08-20T00:21:03;5.80;;;5.30;;
2021;SDS011;1015;49.756;6.994;2023-08-20T00:23:31;9.77;;;6.40;;
2021;SDS011;1015;49.756;6.994;2023-08-20T00:25:58;7.40;;;5.80;;
2021;SDS011;1015;49.756;6.994;2023-08-20T00:28:25;7.23;;;5.33;;
2021;SDS011;1015;49.756;6.994;2023-08-20T00:30:52;7.27;;;6.50;;
2021;SDS011;1015;49.756;6.994;2023-08-20T00:33:21;8.20;;;5.33;;
2021;SDS011;1015;49.756;6.994;2023-08-20T00:35:48;7.73;;;5.37;;
2021;SDS011;1015;49.756;6.994;2023-08-20T00:38:15;6.87;;;4.93;;
2021;SDS011;1015;49.756;6.994;2023-08-20T00:40:42;8.43;;;6.30;;
2021;SDS011;1015;49.756;6.994;2023-08-20T00:43:09;5.90;;;5.40;;
2021;SDS011;1015;49.756;6.994;2023-08-20T00:45:36;4.90;;;4.40;;
2021;SDS011;1015;49.756;6.994;2023-08-20T00:48:03;6.20;;;5.10;;
2021;SDS011;1015;49.756;6.994;2023-08-20T00:50:32;5.57;;;4.83;;
2021;SDS011;1015;49.756;6.994;2023-08-20T00:52:59;6.37;;;5.47;;
2021;SDS011;1015;49.756;6.994;2023-08-20T00:55:27;5.87;;;5.27;;
2021;SDS011;1015;49.756;6.994;2023-08-20T00:57:54;4.57;;;4.17;;
2021;SDS011;1015;49.756;6.994;2023-08-20T01:00:22;5.60;;;4.90;;
2021;SDS011;1015;49.756;6.994;2023-08-20T01:02:50;6.67;;;4.63;;
2021;SDS011;1015;49.756;6.994;2023-08-20T01:05:17;8.57;;;5.00;;
2021;SDS011;1015;49.756;6.994;2023-08-20T01:07:58;5.43;;;4.80;;
2021;SDS011;1015;49.756;6.994;2023-08-20T01:10:29;6.30;;;5.20;;
2021;SDS011;1015;49.756;6.994;2023-08-20T01:12:58;5.33;;;4.80;;
2021;SDS011;1015;49.756;6.994;2023-08-20T01:15:27;6.13;;;5.53;;
2021;SDS011;1015;49.756;6.994;2023-08-20T01:17:54;10.90;;;5.93;;
2021;SDS011;1015;49.756;6.994;2023-08-20T01:20:21;7.60;;;6.87;;
2021;SDS011;1015;49.756;6.994;2023-08-20T01:22:59;8.70;;;6.13;;
2021;SDS011;1015;49.756;6.994;2023-08-20T01:25:30;7.23;;;6.53;;
2021;SDS011;1015;49.756;6.994;2023-08-20T01:28:01;9.80;;;6.73;;
2021;SDS011;1015;49.756;6.994;2023-08-20T01:30:31;6.50;;;6.00;;
2021;SDS011;1015;49.756;6.994;2023-08-20T01:32:58;9.17;;;7.10;;
2021;SDS011;1015;49.756;6.994;2023-08-20T01:35:26;8.50;;;5.97;;
2021;SDS011;1015;49.756;6.994;2023-08-20T01:37:53;6.90;;;6.30;;
2021;SDS011;1015;49.756;6.994;2023-08-20T01:40:20;7.90;;;7.17;;
2021;SDS011;1015;49.756;6.994;2023-08-20T01:42:47;9.17;;;7.50;;
2021;SDS011;1015;49.756;6.994;2023-08-20T01:45:14;8.27;;;6.47;;
2021;SDS011;1015;49.756;6.994;2023-08-20T01:47:42;9.13;;;6.87;;
2021;SDS011;1015;49.756;6.994;2023-08-20T01:50:10;8.37;;;6.57;;
2021;SDS011;1015;49.756;6.994;2023-08-20T01:52:37;7.33;;;6.50;;
2021;SDS011;1015;49.756;6.994;2023-08-20T01:55:04;8.47;;;6.90;;
2021;SDS011;1015;49.756;6.994;2023-08-20T01:57:31;9.37;;;6.77;;
2021;SDS011;1015;49.756;6.994;2023-08-20T01:59:58;7.63;;;6.80;;
2021;SDS011;1015;49.756;6.994;2023-08-20T02:02:25;8.93;;;6.60;;
2021;SDS011;1015;49.756;6.994;2023-08-20T02:04:54;7.60;;;6.73;;
2021;SDS011;1015;49.756;6.994;2023-08-20T02:07:21;7.23;;;6.40;;
2021;SDS011;1015;49.756;6.994;2023-08-20T02:09:48;7.53;;;6.77;;
2021;SDS011;1015;49.756;6.994;2023-08-20T02:12:15;8.63;;;7.70;;
2021;SDS011;1015;49.756;6.994;2023-08-20T02:14:42;11.70;;;7.37;;
2021;SDS011;1015;49.756;6.994;2023-08-20T02:17:10;7.27;;;6.63;;
2021;SDS011;1015;49.756;6.994;2023-08-20T02:19:38;9.30;;;7.17;;
2021;SDS011;1015;49.756;6.994;2023-08-20T02:22:06;7.80;;;7.00;;
2021;SDS011;1015;49.756;6.994;2023-08-20T02:24:33;6.07;;;5.47;;
2021;SDS011;1015;49.756;6.994;2023-08-20T02:27:00;7.70;;;6.10;;
2021;SDS011;1015;49.756;6.994;2023-08-20T02:29:27;8.67;;;6.13;;
2021;SDS011;1015;49.756;6.994;2023-08-20T02:31:54;9.13;;;6.60;;
2021;SDS011;1015;49.756;6.994;2023-08-20T02:34:22;6.37;;;5.60;;
2021;SDS011;1015;49.756;6.994;2023-08-20T02:36:49;6.20;;;5.60;;
2021;SDS011;1015;49.756;6.994;2023-08-20T02:39:18;8.20;;;6.77;;
2021;SDS011;1015;49.756;6.994;2023-08-20T02:41:46;7.33;;;6.60;;
2021;SDS011;1015;49.756;6.994;2023-08-20T02:44:13;8.60;;;6.60;;
2021;SDS011;1015;49.756;6.994;2023-08-20T02:46:40;6.83;;;6.20;;
2021;SDS011;1015;49.756;6.994;2023-08-20T02:49:09;6.80;;;6.10;;
2021;SDS011;1015;49.756;6.994;2023-08-20T02:51:37;7.70;;;6.10;;
2021;SDS011;1015;49.756;6.994;2023-08-20T02:54:04;7.43;;;6.17;;
2021;SDS011;1015;49.756;6.994;2023-08-20T02:56:32;8.20;;;6.40;;
2021;SDS011;1015;49.756;6.994;2023-08-20T02:59:00;6.57;;;5.80;;
2021;SDS011;1015;49.756;6.994;2023-08-20T03:01:27;9.90;;;6.93;;
2021;SDS011;1015;49.756;6.994;2023-08-20T03:03:54;9.10;;;6.87;;
2021;SDS011;1015;49.756;6.994;2023-08-20T03:06:21;8.67;;;6.20;;
2021;SDS011;1015;49.756;6.994;2023-08-20T03:08:48;7.50;;;6.20;;
2021;SDS011;1015;49.756;6.994;2023-08-20T03:11:15;9.17;;;6.03;;
2021;SDS011;1015;49.756;6.994;2023-08-20T03:13:44;6.00;;;5.40;;
2021;SDS011;1015;49.756;6.994;2023-08-20T03:16:11;6.70;;;6.00;;
2021;SDS011;1015;49.756;6.994;2023-08-20T03:18:38;7.30;;;6.40;;
2021;SDS011;1015;49.756;6.994;2023-08-20T03:21:05;5.87;;;5.30;;
2021;SDS011;1015;49.756;6.994;2023-08-20T03:23:32;6.20;;;5.60;;
2021;SDS011;1015;49.756;6.994;2023-08-20T03:25:59;7.00;;;5.83;;
2021;SDS011;1015;49.756;6.994;2023-08-20T03:28:26;6.10;;;5.50;;
2021;SDS011;1015;49.756;6.994;2023-08-20T03:30:54;5.93;;;5.33;;
2021;SDS011;1015;49.756;6.994;2023-08-20T03:33:21;6.50;;;5.73;;
2021;SDS011;1015;49.756;6.994;2023-08-20T03:35:48;8.03;;;5.80;;
2021;SDS011;1015;49.756;6.994;2023-08-20T03:38:15;6.70;;;5.67;;
2021;SDS011;1015;49.756;6.994;2023-08-20T03:40:43;7.53;;;5.87;;
2021;SDS011;1015;49.756;6.994;2023-08-20T03:43:10;8.27;;;5.70;;
2021;SDS011;1015;49.756;6.994;2023-08-20T03:45:37;11.07;;;6.30;;
2021;SDS011;1015;49.756;6.994;2023-08-20T03:48:06;7.63;;;6.93;;
2021;SDS011;1015;49.756;6.994;2023-08-20T03:50:33;7.73;;;6.37;;
2021;SDS011;1015;49.756;6.994;2023-08-20T03:53:00;8.87;;;6.77;;
2021;SDS011;1015;49.756;6.994;2023-08-20T03:55:27;10.23;;;6.97;;
2021;SDS011;1015;49.756;6.994;2023-08-20T03:57:54;6.10;;;5.20;;
2021;SDS011;1015;49.756;6.994;2023-08-20T04:00:21;6.80;;;6.10;;
2021;SDS011;1015;49.756;6.994;2023-08-20T04:02:48;7.77;;;6.73;;
2021;SDS011;1015;49.756;6.994;2023-08-20T04:05:18;7.10;;;6.33;;
2021;SDS011;1015;49.756;6.994;2023-08-20T04:07:45;7.80;;;6.10;;
2021;SDS011;1015;49.756;6.994;2023-08-20T04:10:12;7.83;;;5.60;;
2021;SDS011;1015;49.756;6.994;2023-08-20T04:12:39;7.30;;;6.60;;
2021;SDS011;1015;49.756;6.994;2023-08-20T04:15:06;9.47;;;6.20;;
2021;SDS011;1015;49.756;6.994;2023-08-20T04:17:33;6.93;;;6.23;;
2021;SDS011;1015;49.756;6.994;2023-08-20T04:20:00;8.03;;;6.27;;
2021;SDS011;1015;49.756;6.994;2023-08-20T04:22:29;8.83;;;6.93;;
2021;SDS011;1015;49.756;6.994;2023-08-20T04:24:56;8.33;;;6.10;;
2021;SDS011;1015;49.756;6.994;2023-08-20T04:27:23;9.37;;;6.10;;
2021;SDS011;1015;49.756;6.994;2023-08-20T04:29:50;8.83;;;6.83;;
2021;SDS011;1015;49.756;6.994;2023-08-20T04:32:17;8.03;;;6.50;;
2021;SDS011;1015;49.756;6.994;2023-08-20T04:34:44;6.53;;;5.93;;
2021;SDS011;1015;49.756;6.994;2023-08-20T04:37:14;8.97;;;6.20;;
2021;SDS011;1015;49.756;6.994;2023-08-20T04:39:42;6.30;;;5.70;;
2021;SDS011;1015;49.756;6.994;2023-08-20T04:42:09;6.77;;;6.17;;
2021;SDS011;1015;49.756;6.994;2023-08-20T04:44:36;7.10;;;6.43;;
2021;SDS011;1015;49.756;6.994;2023-08-20T04:47:04;6.57;;;5.93;;
2021;SDS011;1015;49.756;6.994;2023-08-20T04:49:31;7.43;;;6.67;;
2021;SDS011;1015;49.756;6.994;2023-08-20T04:51:58;6.47;;;5.87;;
2021;SDS011;1015;49.756;6.994;2023-08-20T04:54:25;9.80;;;6.50;;
2021;SDS011;1015;49.756;6.994;2023-08-20T04:56:53;9.40;;;6.37;;
2021;SDS011;1015;49.756;6.994;2023-08-20T04:59:20;6.83;;;6.20;;
2021;SDS011;1015;49.756;6.994;2023-08-20T05:01:47;7.53;;;5.77;;
2021;SDS011;1015;49.756;6.994;2023-08-20T05:04:14;7.90;;;6.43;;
2021;SDS011;1015;49.756;6.994;2023-08-20T05:06:41;7.30;;;6.13;;
2021;SDS011;1015;49.756;6.994;2023-08-20T05:09:08;8.50;;;6.23;;
2021;SDS011;1015;49.756;6.994;2023-08-20T05:11:35;8.23;;;5.90;;
2021;SDS011;1015;49.756;6.994;2023-08-20T05:14:04;8.07;;;6.50;;
2021;SDS011;1015;49.756;6.994;2023-08-20T05:16:31;7.00;;;5.00;;
2021;SDS011;1015;49.756;6.994;2023-08-20T05:18:58;6.93;;;6.23;;
2021;SDS011;1015;49.756;6.994;2023-08-20T05:21:25;6.83;;;6.23;;
2021;SDS011;1015;49.756;6.994;2023-08-20T05:23:52;6.47;;;5.87;;
2021;SDS011;1015;49.756;6.994;2023-08-20T05:26:19;6.40;;;5.43;;
2021;SDS011;1015;49.756;6.994;2023-08-20T05:28:46;6.83;;;6.13;;
2021;SDS011;1015;49.756;6.994;2023-08-20T05:31:15;6.53;;;5.93;;
2021;SDS011;1015;49.756;6.994;2023-08-20T05:33:42;5.80;;;5.20;;
2021;SDS011;1015;49.756;6.994;2023-08-20T05:36:09;6.63;;;5.47;;
2021;SDS011;1015;49.756;6.994;2023-08-20T05:38:36;5.87;;;5.37;;
2021;SDS011;1015;49.756;6.994;2023-08-20T05:41:03;6.40;;;5.80;;
2021;SDS011;1015;49.756;6.994;2023-08-20T05:43:30;5.97;;;5.37;;
2021;SDS011;1015;49.756;6.994;2023-08-20T05:45:57;7.37;;;5.50;;
2021;SDS011;1015;49.756;6.994;2023-08-20T05:48:25;6.20;;;5.70;;
2021;SDS011;1015;49.756;6.994;2023-08-20T05:50:52;5.40;;;5.00;;
2021;SDS011;1015;49.756;6.994;2023-08-20T05:53:20;5.90;;;5.30;;
2021;SDS011;1015;49.756;6.994;2023-08-20T05:55:47;5.53;;;5.03;;
2021;SDS011;1015;49.756;6.994;2023-08-20T05:58:14;5.07;;;4.57;;
2021;SDS011;1015;49.756;6.994;2023-08-20T06:00:42;5.50;;;5.00;;
2021;SDS011;1015;49.756;6.994;2023-08-20T06:03:09;5.20;;;4.23;;
2021;SDS011;1015;49.756;6.994;2023-08-20T06:05:37;4.53;;;4.13;;
2021;SDS011;1015;49.756;6.994;2023-08-20T06:08:04;4.30;;;3.90;;
2021;SDS011;1015;49.756;6.994;2023-08-20T06:10:32;5.10;;;4.60;;
2021;SDS011;1015;49.756;6.994;2023-08-20T06:12:59;5.30;;;4.40;;
2021;SDS011;1015;49.756;6.994;2023-08-20T06:15:26;6.10;;;3.70;;
2021;SDS011;1015;49.756;6.994;2023-08-20T06:17:53;4.87;;;4.40;;
2021;SDS011;1015;49.756;6.994;2023-08-20T06:20:20;5.80;;;4.00;;
2021;SDS011;1015;49.756;6.994;2023-08-20T06:22:48;3.80;;;3.40;;
2021;SDS011;1015;49.756;6.994;2023-08-20T06:25:16;5.40;;;4.00;;
2021;SDS011;1015;49.756;6.994;2023-08-20T06:27:43;4.57;;;4.17;;
2021;SDS011;1015;49.756;6.994;2023-08-20T06:30:10;5.00;;;4.10;;
2021;SDS011;1015;49.756;6.994;2023-08-20T06:32:37;3.83;;;3.53;;
2021;SDS011;1015;49.756;6.994;2023-08-20T06:35:05;4.20;;;3.80;;
2021;SDS011;1015;49.756;6.994;2023-08-20T06:37:34;4.43;;;4.03;;
2021;SDS011;1015;49.756;6.994;2023-08-20T06:40:02;4.27;;;3.93;;
2021;SDS011;1015;49.756;6.994;2023-08-20T06:42:29;5.33;;;4.20;;
2021;SDS011;1015;49.756;6.994;2023-08-20T06:44:56;5.00;;;4.50;;
2021;SDS011;1015;49.756;6.994;2023-08-20T06:47:23;5.03;;;4.00;;
2021;SDS011;1015;49.756;6.994;2023-08-20T06:49:51;4.43;;;4.13;;
2021;SDS011;1015;49.756;6.994;2023-08-20T06:52:18;4.63;;;4.20;;
2021;SDS011;1015;49.756;6.994;2023-08-20T06:54:45;4.80;;;4.43;;
2021;SDS011;1015;49.756;6.994;2023-08-20T06:57:13;4.60;;;4.20;;
2021;SDS011;1015;49.756;6.994;2023-08-20T06:59:40;4.87;;;4.13;;
2021;SDS011;1015;49.756;6.994;2023-08-20T07:02:08;4.43;;;4.07;;
2021;SDS011;1015;49.756;6.994;2023-08-20T07:04:36;4.73;;;4.43;;
2021;SDS011;1015;49.756;6.994;2023-08-20T07:07:03;4.93;;;4.27;;
2021;SDS011;1015;49.756;6.994;2023-08-20T07:09:30;5.63;;;4.67;;
2021;SDS011;1015;49.756;6.994;2023-08-20T07:11:57;5.43;;;4.97;;
2021;SDS011;1015;49.756;6.994;2023-08-20T07:14:26;6.50;;;5.00;;
2021;SDS011;1015;49.756;6.994;2023-08-20T07:16:53;4.60;;;4.20;;
2021;SDS011;1015;49.756;6.994;2023-08-20T07:19:20;4.43;;;4.07;;
2021;SDS011;1015;49.756;6.994;2023-08-20T07:21:47;4.40;;;4.00;;
2021;SDS011;1015;49.756;6.994;2023-08-20T07:24:15;5.87;;;4.70;;
2021;SDS011;1015;49.756;6.994;2023-08-20T07:26:42;5.27;;;4.80;;
2021;SDS011;1015;49.756;6.994;2023-08-20T07:29:09;5.03;;;4.27;;
2021;SDS011;1015;49.756;6.994;2023-08-20T07:31:37;4.30;;;4.00;;
2021;SDS011;1015;49.756;6.994;2023-08-20T07:34:04;5.53;;;4.40;;
2021;SDS011;1015;49.756;6.994;2023-08-20T07:36:31;3.63;;;3.33;;
2021;SDS011;1015;49.756;6.994;2023-08-20T07:38:59;3.83;;;3.43;;
2021;SDS011;1015;49.756;6.994;2023-08-20T07:41:26;4.33;;;3.60;;
2021;SDS011;1015;49.756;6.994;2023-08-20T07:43:53;4.37;;;3.97;;
2021;SDS011;1015;49.756;6.994;2023-08-20T07:46:20;4.00;;;3.70;;
2021;SDS011;1015;49.756;6.994;2023-08-20T07:48:49;3.80;;;3.50;;
2021;SDS011;1015;49.756;6.994;2023-08-20T07:51:16;4.63;;;3.50;;
2021;SDS011;1015;49.756;6.994;2023-08-20T07:53:43;3.87;;;3.40;;
2021;SDS011;1015;49.756;6.994;2023-08-20T07:56:10;3.47;;;3.17;;
2021;SDS011;1015;49.756;6.994;2023-08-20T07:58:37;3.90;;;3.60;;
2021;SDS011;1015;49.756;6.994;2023-08-20T08:01:04;3.80;;;3.50;;
2021;SDS011;1015;49.756;6.994;2023-08-20T08:03:31;4.50;;;4.10;;
2021;SDS011;1015;49.756;6.994;2023-08-20T08:05:59;4.07;;;3.67;;
2021;SDS011;1015;49.756;6.994;2023-08-20T08:08:26;3.27;;;3.00;;
2021;SDS011;1015;49.756;6.994;2023-08-20T08:10:54;3.70;;;3.40;;
2021;SDS011;1015;49.756;6.994;2023-08-20T08:13:22;3.50;;;3.20;;
2021;SDS011;1015;49.756;6.994;2023-08-20T08:15:49;4.43;;;3.70;;
2021;SDS011;1015;49.756;6.994;2023-08-20T08:18:17;3.67;;;3.33;;
2021;SDS011;1015;49.756;6.994;2023-08-20T08:20:44;3.67;;;3.37;;
2021;SDS011;1015;49.756;6.994;2023-08-20T08:23:12;3.33;;;3.03;;
2021;SDS011;1015;49.756;6.994;2023-08-20T08:25:40;3.33;;;3.10;;
2021;SDS011;1015;49.756;6.994;2023-08-20T08:28:07;3.80;;;3.40;;
2021;SDS011;1015;49.756;6.994;2023-08-20T08:30:34;3.80;;;3.50;;
2021;SDS011;1015;49.756;6.994;2023-08-20T08:33:01;7.63;;;3.10;;
2021;SDS011;1015;49.756;6.994;2023-08-20T08:35:28;3.33;;;3.00;;
2021;SDS011;1015;49.756;6.994;2023-08-20T08:37:55;3.30;;;3.00;;
2021;SDS011;1015;49.756;6.994;2023-08-20T08:40:25;3.17;;;2.97;;
2021;SDS011;1015;49.756;6.994;2023-08-20T08:42:54;3.43;;;3.13;;
2021;SDS011;1015;49.756;6.994;2023-08-20T08:45:21;3.83;;;3.20;;
2021;SDS011;1015;49.756;6.994;2023-08-20T08:47:49;3.20;;;2.90;;
2021;SDS011;1015;49.756;6.994;2023-08-20T08:50:16;4.33;;;3.40;;
2021;SDS011;1015;49.756;6.994;2023-08-20T08:52:44;3.67;;;3.37;;
2021;SDS011;1015;49.756;6.994;2023-08-20T08:55:11;5.20;;;3.43;;
2021;SDS011;1015;49.756;6.994;2023-08-20T08:57:40;3.20;;;2.90;;
2021;SDS011;1015;49.756;6.994;2023-08-20T09:00:07;3.93;;;3.00;;
2021;SDS011;1015;49.756;6.994;2023-08-20T09:02:34;3.13;;;2.83;;
2021;SDS011;1015;49.756;6.994;2023-08-20T09:05:02;3.37;;;3.07;;
2021;SDS011;1015;49.756;6.994;2023-08-20T09:07:29;3.60;;;3.30;;
2021;SDS011;1015;49.756;6.994;2023-08-20T09:09:57;3.33;;;3.13;;
2021;SDS011;1015;49.756;6.994;2023-08-20T09:12:25;3.50;;;3.20;;
2021;SDS011;1015;49.756;6.994;2023-08-20T09:14:54;3.23;;;3.00;;
2021;SDS011;1015;49.756;6.994;2023-08-20T09:17:24;3.13;;;2.83;;
2021;SDS011;1015;49.756;6.994;2023-08-20T09:19:53;3.53;;;3.23;;
2021;SDS011;1015;49.756;6.994;2023-08-20T09:22:20;5.50;;;3.30;;
2021;SDS011;1015;49.756;6.994;2023-08-20T09:24:51;4.30;;;3.17;;
2021;SDS011;1015;49.756;6.994;2023-08-20T09:27:19;4.50;;;3.20;;
2021;SDS011;1015;49.756;6.994;2023-08-20T09:29:46;3.90;;;3.60;;
2021;SDS011;1015;49.756;6.994;2023-08-20T09:32:15;4.00;;;3.70;;
2021;SDS011;1015;49.756;6.994;2023-08-20T09:34:42;5.40;;;3.53;;
2021;SDS011;1015;49.756;6.994;2023-08-20T09:37:09;4.70;;;3.67;;
2021;SDS011;1015;49.756;6.994;2023-08-20T09:39:36;5.27;;;3.30;;
2021;SDS011;1015;49.756;6.994;2023-08-20T09:42:04;5.40;;;3.70;;
2021;SDS011;1015;49.756;6.994;2023-08-20T09:44:32;7.13;;;3.50;;
2021;SDS011;1015;49.756;6.994;2023-08-20T09:47:01;4.47;;;4.10;;
2021;SDS011;1015;49.756;6.994;2023-08-20T09:49:32;4.47;;;4.17;;
2021;SDS011;1015;49.756;6.994;2023-08-20T09:52:02;3.60;;;3.33;;
2021;SDS011;1015;49.756;6.994;2023-08-20T09:54:32;4.10;;;3.80;;
2021;SDS011;1015;49.756;6.994;2023-08-20T09:57:01;4.10;;;3.80;;
2021;SDS011;1015;49.756;6.994;2023-08-20T09:59:31;4.60;;;4.10;;
2021;SDS011;1015;49.756;6.994;2023-08-20T10:02:00;6.33;;;3.53;;
2021;SDS011;1015;49.756;6.994;2023-08-20T10:04:28;3.90;;;3.50;;
2021;SDS011;1015;49.756;6.994;2023-08-20T10:06:57;5.40;;;4.63;;
2021;SDS011;1015;49.756;6.994;2023-08-20T10:09:25;4.80;;;4.30;;
2021;SDS011;1015;49.756;6.994;2023-08-20T10:11:52;4.13;;;3.73;;
2021;SDS011;1015;49.756;6.994;2023-08-20T10:14:19;5.37;;;3.83;;
2021;SDS011;1015;49.756;6.994;2023-08-20T10:16:46;4.73;;;4.30;;
2021;SDS011;1015;49.756;6.994;2023-08-20T10:19:14;4.53;;;4.10;;
2021;SDS011;1015;49.756;6.994;2023-08-20T10:21:43;4.63;;;3.63;;
2021;SDS011;1015;49.756;6.994;2023-08-20T10:24:17;4.07;;;3.70;;
2021;SDS011;1015;49.756;6.994;2023-08-20T10:26:45;6.03;;;4.10;;
2021;SDS011;1015;49.756;6.994;2023-08-20T10:31:59;6.07;;;2.30;;
2021;SDS011;1015;49.756;6.994;2023-08-20T10:34:31;3.03;;;2.80;;
2021;SDS011;1015;49.756;6.994;2023-08-20T10:37:00;4.97;;;3.33;;
2021;SDS011;1015;49.756;6.994;2023-08-20T10:39:32;4.53;;;3.27;;
2021;SDS011;1015;49.756;6.994;2023-08-20T10:42:08;2.70;;;2.43;;
2021;SDS011;1015;49.756;6.994;2023-08-20T10:47:21;3.47;;;3.17;;
2021;SDS011;1015;49.756;6.994;2023-08-20T10:49:50;4.70;;;3.33;;
2021;SDS011;1015;49.756;6.994;2023-08-20T10:52:18;4.70;;;3.17;;
2021;SDS011;1015;49.756;6.994;2023-08-20T10:54:46;4.70;;;3.27;;
2021;SDS011;1015;49.756;6.994;2023-08-20T10:57:16;4.20;;;3.17;;
2021;SDS011;1015;49.756;6.994;2023-08-20T10:59:47;7.70;;;3.10;;
2021;SDS011;1015;49.756;6.994;2023-08-20T11:02:23;2.30;;;2.10;;
2021;SDS011;1015;49.756;6.994;2023-08-20T11:04:50;2.80;;;2.53;;
2021;SDS011;1015;49.756;6.994;2023-08-20T11:07:18;2.80;;;2.37;;
2021;SDS011;1015;49.756;6.994;2023-08-20T11:09:47;2.63;;;2.40;;
2021;SDS011;1015;49.756;6.994;2023-08-20T11:12:14;3.50;;;2.60;;
2021;SDS011;1015;49.756;6.994;2023-08-20T11:14:42;2.70;;;2.50;;
2021;SDS011;1015;49.756;6.994;2023-08-20T11:17:09;3.20;;;2.90;;
2021;SDS011;1015;49.756;6.994;2023-08-20T11:19:36;3.97;;;3.30;;
2021;SDS011;1015;49.756;6.994;2023-08-20T11:22:03;4.00;;;3.70;;
2021;SDS011;1015;49.756;6.994;2023-08-20T11:24:30;5.53;;;4.10;;
2021;SDS011;1015;49.756;6.994;2023-08-20T11:26:59;4.13;;;3.80;;
2021;SDS011;1015;49.756;6.994;2023-08-20T11:29:26;6.43;;;4.13;;
2021;SDS011;1015;49.756;6.994;2023-08-20T11:31:55;4.50;;;4.20;;
2021;SDS011;1015;49.756;6.994;2023-08-20T11:34:22;4.33;;;3.93;;
2021;SDS011;1015;49.756;6.994;2023-08-20T11:36:49;3.93;;;3.60;;
2021;SDS011;1015;49.756;6.994;2023-08-20T11:39:17;3.10;;;2.80;;
2021;SDS011;1015;49.756;6.994;2023-08-20T11:41:44;3.50;;;3.20;;
2021;SDS011;1015;49.756;6.994;2023-08-20T11:44:18;4.03;;;3.67;;
2021;SDS011;1015;49.756;6.994;2023-08-20T11:46:46;4.20;;;3.80;;
2021;SDS011;1015;49.756;6.994;2023-08-20T11:49:13;3.90;;;3.50;;
2021;SDS011;1015;49.756;6.994;2023-08-20T11:51:41;2.90;;;2.70;;
2021;SDS011;1015;49.756;6.994;2023-08-20T11:54:09;3.97;;;3.00;;
2021;SDS011;1015;49.756;6.994;2023-08-20T11:56:42;2.80;;;2.60;;
2021;SDS011;1015;49.756;6.994;2023-08-20T11:59:10;4.00;;;2.90;;
2021;SDS011;1015;49.756;6.994;2023-08-20T12:01:38;3.37;;;3.07;;
2021;SDS011;1015;49.756;6.994;2023-08-20T12:04:06;3.47;;;3.17;;
2021;SDS011;1015;49.756;6.994;2023-08-20T12:06:33;2.70;;;2.50;;
2021;SDS011;1015;49.756;6.994;2023-08-20T12:09:01;3.77;;;2.77;;
2021;SDS011;1015;49.756;6.994;2023-08-20T12:11:29;4.53;;;2.60;;
2021;SDS011;1015;49.756;6.994;2023-08-20T12:13:58;5.93;;;2.60;;
2021;SDS011;1015;49.756;6.994;2023-08-20T12:16:26;3.67;;;2.23;;
2021;SDS011;1015;49.756;6.994;2023-08-20T12:18:54;4.20;;;2.73;;
2021;SDS011;1015;49.756;6.994;2023-08-20T12:21:21;2.87;;;2.57;;
2021;SDS011;1015;49.756;6.994;2023-08-20T12:23:49;2.67;;;2.30;;
2021;SDS011;1015;49.756;6.994;2023-08-20T12:26:16;3.93;;;2.60;;
2021;SDS011;1015;49.756;6.994;2023-08-20T12:28:43;3.20;;;2.90;;
2021;SDS011;1015;49.756;6.994;2023-08-20T12:31:10;4.43;;;2.73;;
2021;SDS011;1015;49.756;6.994;2023-08-20T12:33:38;3.77;;;3.30;;
2021;SDS011;1015;49.756;6.994;2023-08-20T12:36:06;2.70;;;2.50;;
2021;SDS011;1015;49.756;6.994;2023-08-20T12:38:33;2.60;;;2.40;;
2021;SDS011;1015;49.756;6.994;2023-08-20T12:41:00;2.43;;;2.23;;
2021;SDS011;1015;49.756;6.994;2023-08-20T12:43:29;2.97;;;2.67;;
2021;SDS011;1015;49.756;6.994;2023-08-20T12:45:56;3.00;;;2.70;;
2021;SDS011;1015;49.756;6.994;2023-08-20T12:48:23;5.90;;;2.70;;
2021;SDS011;1015;49.756;6.994;2023-08-20T12:50:50;3.80;;;2.90;;
2021;SDS011;1015;49.756;6.994;2023-08-20T12:53:18;3.33;;;2.60;;
2021;SDS011;1015;49.756;6.994;2023-08-20T12:55:46;3.33;;;2.70;;
2021;SDS011;1015;49.756;6.994;2023-08-20T12:58:13;3.10;;;2.90;;
2021;SDS011;1015;49.756;6.994;2023-08-20T13:00:40;3.20;;;2.90;;
2021;SDS011;1015;49.756;6.994;2023-08-20T13:03:07;4.43;;;2.80;;
2021;SDS011;1015;49.756;6.994;2023-08-20T13:05:35;2.80;;;2.60;;
2021;SDS011;1015;49.756;6.994;2023-08-20T13:08:02;3.07;;;2.87;;
2021;SDS011;1015;49.756;6.994;2023-08-20T13:10:31;5.77;;;2.87;;
2021;SDS011;1015;49.756;6.994;2023-08-20T13:12:59;3.70;;;3.20;;
2021;SDS011;1015;49.756;6.994;2023-08-20T13:15:27;7.60;;;3.00;;
2021;SDS011;1015;49.756;6.994;2023-08-20T13:17:54;3.30;;;2.43;;
2021;SDS011;1015;49.756;6.994;2023-08-20T13:20:22;5.60;;;3.30;;
2021;SDS011;1015;49.756;6.994;2023-08-20T13:22:50;3.27;;;2.97;;
2021;SDS011;1015;49.756;6.994;2023-08-20T13:25:17;3.60;;;2.77;;
2021;SDS011;1015;49.756;6.994;2023-08-20T13:27:47;3.97;;;2.63;;
2021;SDS011;1015;49.756;6.994;2023-08-20T13:30:14;3.53;;;2.90;;
2021;SDS011;1015;49.756;6.994;2023-08-20T13:32:42;7.53;;;2.53;;
2021;SDS011;1015;49.756;6.994;2023-08-20T13:35:09;4.33;;;3.43;;
2021;SDS011;1015;49.756;6.994;2023-08-20T13:37:37;3.30;;;3.10;;
2021;SDS011;1015;49.756;6.994;2023-08-20T13:40:04;3.90;;;2.80;;
2021;SDS011;1015;49.756;6.994;2023-08-20T13:42:32;3.40;;;3.10;;
2021;SDS011;1015;49.756;6.994;2023-08-20T13:45:00;4.27;;;3.60;;
2021;SDS011;1015;49.756;6.994;2023-08-20T13:47:28;3.30;;;3.00;;
2021;SDS011;1015;49.756;6.994;2023-08-20T13:49:56;3.63;;;3.33;;
2021;SDS011;1015;49.756;6.994;2023-08-20T13:52:23;3.50;;;3.30;;
2021;SDS011;1015;49.756;6.994;2023-08-20T13:54:51;3.50;;;3.17;;
2021;SDS011;1015;49.756;6.994;2023-08-20T13:57:18;3.27;;;2.97;;
2021;SDS011;1015;49.756;6.994;2023-08-20T13:59:45;3.40;;;3.10;;
2021;SDS011;1015;49.756;6.994;2023-08-20T14:02:13;3.47;;;3.17;;
2021;SDS011;1015;49.756;6.994;2023-08-20T14:04:40;3.63;;;3.33;;
2021;SDS011;1015;49.756;6.994;2023-08-20T14:07:07;5.03;;;3.30;;
2021;SDS011;1015;49.756;6.994;2023-08-20T14:09:34;3.27;;;3.00;;
2021;SDS011;1015;49.756;6.994;2023-08-20T14:12:01;3.03;;;2.83;;
2021;SDS011;1015;49.756;6.994;2023-08-20T14:14:29;3.53;;;3.23;;
2021;SDS011;1015;49.756;6.994;2023-08-20T14:16:56;3.30;;;2.97;;
2021;SDS011;1015;49.756;6.994;2023-08-20T14:19:24;3.53;;;3.20;;
2021;SDS011;1015;49.756;6.994;2023-08-20T14:21:51;3.40;;;2.97;;
2021;SDS011;1015;49.756;6.994;2023-08-20T14:24:18;3.23;;;2.90;;
2021;SDS011;1015;49.756;6.994;2023-08-20T14:26:45;3.20;;;3.00;;
2021;SDS011;1015;49.756;6.994;2023-08-20T14:29:12;4.33;;;3.30;;
2021;SDS011;1015;49.756;6.994;2023-08-20T14:31:39;3.27;;;2.97;;
2021;SDS011;1015;49.756;6.994;2023-08-20T14:34:07;2.80;;;2.60;;
2021;SDS011;1015;49.756;6.994;2023-08-20T14:36:35;3.20;;;2.90;;
2021;SDS011;1015;49.756;6.994;2023-08-20T14:39:02;3.17;;;2.87;;
2021;SDS011;1015;49.756;6.994;2023-08-20T14:41:29;3.37;;;3.07;;
2021;SDS011;1015;49.756;6.994;2023-08-20T14:43:56;3.00;;;2.80;;
2021;SDS011;1015;49.756;6.994;2023-08-20T14:46:24;3.17;;;2.87;;
2021;SDS011;1015;49.756;6.994;2023-08-20T14:48:51;3.60;;;3.30;;
2021;SDS011;1015;49.756;6.994;2023-08-20T14:51:20;5.93;;;3.23;;
2021;SDS011;1015;49.756;6.994;2023-08-20T14:53:48;3.77;;;2.90;;
2021;SDS011;1015;49.756;6.994;2023-08-20T14:56:15;3.00;;;2.80;;
2021;SDS011;1015;49.756;6.994;2023-08-20T14:58:42;5.70;;;3.10;;
2021;SDS011;1015;49.756;6.994;2023-08-20T15:01:09;3.23;;;3.03;;
2021;SDS011;1015;49.756;6.994;2023-08-20T15:03:37;4.27;;;3.30;;
2021;SDS011;1015;49.756;6.994;2023-08-20T15:06:05;4.30;;;3.00;;
2021;SDS011;1015;49.756;6.994;2023-08-20T15:08:32;3.23;;;2.83;;
2021;SDS011;1015;49.756;6.994;2023-08-20T15:11:00;2.93;;;2.73;;
2021;SDS011;1015;49.756;6.994;2023-08-20T15:13:28;3.30;;;2.50;;
2021;SDS011;1015;49.756;6.994;2023-08-20T15:15:55;3.60;;;2.97;;
2021;SDS011;1015;49.756;6.994;2023-08-20T15:18:22;3.50;;;3.07;;
2021;SDS011;1015;49.756;6.994;2023-08-20T15:20:53;3.30;;;3.00;;
2021;SDS011;1015;49.756;6.994;2023-08-20T15:23:20;4.90;;;3.13;;